Skip Navigation Links Skip Navigation Links

Current Weather

Maraba, Brazil

For information only: do not use for flight planning or navigation.
Latest weather
Observation time Saturday, September 22, 2018 12:00 PM BRT
Local time Saturday, September 22, 2018 12:58 PM BRT
Flight conditions Visual Meteorological Conditions
Winds
Wind direction North-Northeast (30°)
Wind speed 5 mph
Visibility 6.2 mi.
Sky condition
Ceiling 3,000 ft. broken clouds
Cloud layer broken clouds 3,000 ft.
Temperature 95°F
Dewpoint 73°F
Altimeter 29.88 in.Hg
Derived measurements
Relative humidity 50%
Heat index 105°F
Density altitude 2687 ft.
METAR SBMA 221500Z 03004KT 9999 BKN030 35/23 Q1012

Settings

Location code

InnerDrive.Weather 4.0.6770.0 Release CLR 4.0.30319.42000
Copyright ©2018 Inner Drive Technology. All rights reserved. Portions Copyright ©1986-2018 David Braverman.

Find weather

Site navigation


Skip Navigation Links

Place info

Page info

PayPal - The safer, easier way to pay online!

Return home.

Copyright ©2018 Inner Drive Technology. Purveyors of fine, hand-crafted computer software. Page printed 2018-09-22T15:58:09 UTC.